Time;durP1;ratioP1;P1;durP2;ratioP2;P2;SDS_P1;SDS_P2;PMS_P1;PMS_P2;Temp;Humidity;BMP_temperature;BMP_pressure;BME280_temperature;BME280_humidity;BME280_pressure;Samples;Min_cycle;Max_cycle;Signal;HPM_P1;HPM_P2
2022/11/24 00:01:54;;;;;;;17.63;9.35;;;6.90;99.90;;;;;;4997181;28;20049;-85
2022/11/24 00:04:20;;;;;;;16.27;9.18;;;6.90;99.90;;;;;;5006411;28;20038;-85
2022/11/24 00:06:45;;;;;;;21.02;9.38;;;6.90;99.90;;;;;;5014566;28;20038;-85
2022/11/24 00:09:11;;;;;;;22.60;8.95;;;6.90;99.90;;;;;;5010187;28;20084;-85
2022/11/24 00:11:37;;;;;;;15.50;8.63;;;6.80;99.90;;;;;;4996496;28;20528;-85
2022/11/24 00:14:04;;;;;;;18.20;8.32;;;6.80;99.90;;;;;;5001552;28;20045;-85
2022/11/24 00:16:35;;;;;;;19.80;9.48;;;6.80;99.90;;;;;;4985856;28;20046;-85
2022/11/24 00:19:02;;;;;;;20.67;8.55;;;6.80;99.90;;;;;;5012985;28;20047;-86
2022/11/24 00:21:29;;;;;;;19.08;8.75;;;6.70;99.90;;;;;;4986614;28;20077;-85
2022/11/24 00:23:56;;;;;;;20.55;8.90;;;6.70;99.90;;;;;;4988061;28;20446;-85
2022/11/24 00:26:28;;;;;;;21.80;8.13;;;6.70;99.90;;;;;;4988623;28;20140;-85
2022/11/24 00:28:56;;;;;;;17.77;7.70;;;6.70;99.90;;;;;;5009769;28;20125;-85
2022/11/24 00:31:25;;;;;;;16.90;7.68;;;6.70;99.90;;;;;;4981392;28;20104;-85
2022/11/24 00:33:53;;;;;;;22.40;8.25;;;6.70;99.90;;;;;;5006024;28;20410;-85
2022/11/24 00:36:21;;;;;;;20.73;8.63;;;6.70;99.90;;;;;;4994403;28;20068;-85
2022/11/24 00:38:51;;;;;;;20.25;8.68;;;6.60;99.90;;;;;;4988493;28;20046;-85
2022/11/24 00:41:17;;;;;;;15.07;8.20;;;6.60;99.90;;;;;;4983863;28;20076;-85
2022/11/24 00:43:42;;;;;;;22.92;8.52;;;6.60;99.90;;;;;;4980839;28;20061;-84
2022/11/24 00:46:08;;;;;;;17.60;7.68;;;6.60;99.90;;;;;;4993527;28;20061;-85
2022/11/24 00:48:34;;;;;;;19.95;8.00;;;6.60;99.90;;;;;;5001747;28;20495;-84
2022/11/24 00:51:06;;;;;;;18.50;8.30;;;6.60;99.90;;;;;;4992092;28;20030;-85
2022/11/24 00:53:32;;;;;;;21.77;8.55;;;6.60;99.90;;;;;;5007174;28;20129;-85
2022/11/24 00:55:57;;;;;;;17.95;7.95;;;6.60;99.90;;;;;;4976944;28;20065;-85
2022/11/24 00:58:24;;;;;;;16.98;7.50;;;6.60;99.90;;;;;;4998684;28;20037;-85
2022/11/24 01:00:51;;;;;;;20.10;8.15;;;6.60;99.90;;;;;;4985523;28;20337;-84
2022/11/24 01:03:18;;;;;;;18.23;7.85;;;6.60;99.90;;;;;;4987770;28;20065;-84
2022/11/24 01:05:44;;;;;;;18.13;6.95;;;6.50;99.90;;;;;;5001302;28;20037;-85
2022/11/24 01:08:10;;;;;;;21.25;7.57;;;6.50;99.90;;;;;;5003926;28;20030;-85
2022/11/24 01:10:36;;;;;;;15.60;7.05;;;6.50;99.90;;;;;;4988068;28;20505;-85
2022/11/24 01:13:02;;;;;;;18.42;6.97;;;6.40;99.90;;;;;;4993739;28;20403;-85
2022/11/24 01:15:29;;;;;;;18.80;6.85;;;6.40;99.90;;;;;;4982021;28;20295;-85
2022/11/24 01:17:55;;;;;;;19.92;7.40;;;6.40;99.90;;;;;;4983748;28;20519;-85
2022/11/24 01:20:21;;;;;;;20.52;7.78;;;6.40;99.90;;;;;;4982988;28;20053;-85
2022/11/24 01:22:48;;;;;;;19.80;7.03;;;6.40;99.90;;;;;;5008781;28;20077;-85
2022/11/24 01:25:13;;;;;;;19.83;6.80;;;6.40;99.90;;;;;;4988857;28;20497;-85
2022/11/24 01:27:39;;;;;;;20.65;7.45;;;6.50;99.90;;;;;;5001724;28;20069;-85
2022/11/24 01:30:06;;;;;;;16.50;7.50;;;6.50;99.90;;;;;;4999925;28;20038;-85
2022/11/24 01:32:34;;;;;;;24.30;6.93;;;6.50;99.90;;;;;;4983179;28;20038;-85
2022/11/24 01:35:01;;;;;;;17.45;6.57;;;6.50;99.90;;;;;;4988546;28;20045;-85
2022/11/24 01:37:26;;;;;;;23.23;7.15;;;6.40;99.90;;;;;;4985288;28;20042;-85
2022/11/24 01:39:52;;;;;;;20.75;7.40;;;6.40;99.90;;;;;;5002503;28;20046;-85
2022/11/24 01:42:18;;;;;;;18.60;6.82;;;6.50;99.90;;;;;;5009350;28;20092;-85
2022/11/24 01:44:43;;;;;;;18.95;6.57;;;6.40;99.90;;;;;;5012964;28;20026;-84
2022/11/24 01:47:35;;;;;;;15.18;6.53;;;6.40;99.90;;;;;;5005166;28;20102;-84
2022/11/24 01:50:03;;;;;;;17.13;6.80;;;6.50;99.90;;;;;;5005917;28;20435;-85
2022/11/24 01:52:33;;;;;;;19.33;6.55;;;6.40;99.90;;;;;;5015924;28;20521;-85
2022/11/24 01:55:03;;;;;;;19.33;6.25;;;6.40;99.90;;;;;;5016668;28;20045;-85
2022/11/24 01:58:00;;;;;;;18.50;6.50;;;6.40;99.90;;;;;;5020507;28;20074;-85
2022/11/24 02:00:26;;;;;;;20.30;6.80;;;6.30;99.90;;;;;;4986030;28;20039;-85
2022/11/24 02:02:52;;;;;;;21.23;6.68;;;6.30;99.90;;;;;;4997612;28;20402;-85
2022/11/24 02:05:29;;;;;;;20.58;6.80;;;6.30;99.90;;;;;;4987043;28;20035;-85
2022/11/24 02:07:58;;;;;;;24.08;7.10;;;6.30;99.90;;;;;;5008640;28;20037;-85
2022/11/24 02:10:23;;;;;;;21.05;6.00;;;6.30;99.90;;;;;;4997112;28;20069;-85
2022/11/24 02:12:53;;;;;;;25.75;6.82;;;6.30;99.90;;;;;;4985172;28;20111;-85
2022/11/24 02:15:19;;;;;;;22.27;6.28;;;6.40;99.90;;;;;;4986023;28;20088;-84
2022/11/24 02:17:45;;;;;;;20.95;6.00;;;6.40;99.90;;;;;;5012599;28;20039;-85
2022/11/24 02:20:12;;;;;;;25.00;6.60;;;6.40;99.90;;;;;;4990841;28;20517;-85
2022/11/24 02:23:02;;;;;;;25.10;6.13;;;6.30;99.90;;;;;;4988384;28;20084;-85
2022/11/24 02:25:50;;;;;;;27.60;6.50;;;6.40;99.90;;;;;;4988897;28;20038;-84
2022/11/24 02:28:19;;;;;;;25.70;6.95;;;6.40;99.90;;;;;;4995900;28;20513;-85
2022/11/24 02:30:45;;;;;;;18.20;5.47;;;6.40;99.90;;;;;;5014755;28;20025;-84
2022/11/24 02:33:12;;;;;;;28.42;6.43;;;6.40;99.90;;;;;;5014261;28;20030;-84
2022/11/24 02:35:38;;;;;;;22.33;6.20;;;6.40;99.90;;;;;;5027590;28;20041;-85
2022/11/24 02:38:04;;;;;;;20.92;5.80;;;6.40;99.90;;;;;;5003433;28;20108;-85
2022/11/24 02:40:30;;;;;;;22.27;5.82;;;6.40;99.90;;;;;;4988694;28;20388;-85
2022/11/24 02:43:09;;;;;;;22.75;5.43;;;6.40;99.90;;;;;;4986696;28;20046;-85
2022/11/24 02:45:35;;;;;;;22.35;6.15;;;6.40;99.90;;;;;;5006128;28;20516;-85
2022/11/24 02:48:00;;;;;;;16.85;5.20;;;6.40;99.90;;;;;;4979605;28;20030;-85
2022/11/24 02:50:26;;;;;;;23.77;6.28;;;6.40;99.90;;;;;;4997242;28;20540;-85
2022/11/24 02:52:52;;;;;;;18.23;7.00;;;6.50;99.90;;;;;;4982689;28;20558;-85
2022/11/24 02:55:19;;;;;;;23.27;6.43;;;6.50;99.90;;;;;;4984413;28;20033;-85
2022/11/24 02:57:45;;;;;;;22.33;5.43;;;6.50;99.90;;;;;;4983770;28;20072;-86
2022/11/24 03:00:11;;;;;;;23.00;5.88;;;6.50;99.90;;;;;;4996262;28;20047;-85
2022/11/24 03:02:36;;;;;;;19.85;5.28;;;6.60;99.90;;;;;;5003847;28;20040;-85
2022/11/24 03:05:02;;;;;;;19.98;4.88;;;6.60;99.90;;;;;;4986749;28;20033;-85
2022/11/24 03:07:28;;;;;;;15.73;4.50;;;6.70;99.90;;;;;;4983263;28;20038;-85
2022/11/24 03:09:54;;;;;;;23.00;4.57;;;6.80;99.90;;;;;;4985885;28;20512;-85
2022/11/24 03:12:19;;;;;;;11.32;4.28;;;6.90;99.90;;;;;;5000351;28;20054;-85
2022/11/24 03:14:45;;;;;;;20.05;5.30;;;6.90;99.90;;;;;;4989854;28;20069;-85
2022/11/24 03:17:11;;;;;;;13.73;4.75;;;6.90;99.90;;;;;;5010142;28;20073;-85
2022/11/24 03:19:37;;;;;;;21.58;4.80;;;7.00;99.90;;;;;;5000299;28;20523;-85
2022/11/24 03:22:03;;;;;;;17.08;4.68;;;7.10;99.90;;;;;;5020087;23;20620;-27
2022/11/24 03:24:28;;;;;;;16.27;4.00;;;7.10;99.90;;;;;;5046720;28;20033;-30
2022/11/24 03:26:54;;;;;;;19.48;5.47;;;7.10;99.90;;;;;;5035567;28;20029;-30
2022/11/24 03:29:21;;;;;;;23.20;5.15;;;7.10;99.90;;;;;;5031929;28;20029;-27
2022/11/24 03:31:47;;;;;;;19.88;4.78;;;7.10;99.90;;;;;;5033609;28;20105;-29
2022/11/24 03:34:12;;;;;;;17.27;4.57;;;7.20;99.90;;;;;;5037822;28;20490;-29
2022/11/24 03:36:38;;;;;;;16.75;4.45;;;7.20;99.90;;;;;;5035879;28;20045;-28
2022/11/24 03:39:06;;;;;;;18.13;3.72;;;7.20;99.90;;;;;;5035778;28;20044;-29
2022/11/24 03:41:31;;;;;;;14.38;4.20;;;7.20;99.90;;;;;;5033413;28;20033;-29
2022/11/24 03:43:57;;;;;;;15.50;6.30;;;7.20;99.90;;;;;;5034354;28;20038;-29
2022/11/24 03:46:26;;;;;;;26.88;11.43;;;7.10;99.90;;;;;;5034252;28;20107;-28
2022/11/24 03:48:52;;;;;;;36.05;16.85;;;7.10;99.90;;;;;;5033373;28;20067;-29
2022/11/24 03:51:17;;;;;;;32.63;14.23;;;7.00;99.90;;;;;;5033142;28;20053;-28
2022/11/24 03:53:43;;;;;;;20.35;8.52;;;7.00;99.90;;;;;;5033993;28;20034;-29
2022/11/24 03:56:09;;;;;;;22.45;5.80;;;7.00;99.90;;;;;;5038847;28;20509;-29
2022/11/24 03:58:35;;;;;;;15.32;4.63;;;7.00;99.90;;;;;;5044506;28;20041;-29
2022/11/24 04:01:01;;;;;;;22.08;6.75;;;6.90;99.90;;;;;;5039157;28;20071;-30
2022/11/24 04:03:26;;;;;;;20.10;5.55;;;6.90;99.90;;;;;;5040552;28;20045;-28
2022/11/24 04:05:52;;;;;;;19.40;4.93;;;6.90;99.90;;;;;;5035072;28;20072;-28
2022/11/24 04:08:18;;;;;;;15.02;6.38;;;6.90;99.90;;;;;;5038349;28;20127;-28
2022/11/24 04:10:49;;;;;;;25.33;8.25;;;6.90;99.90;;;;;;5035146;28;20044;-29
2022/11/24 04:13:16;;;;;;;13.77;4.75;;;6.90;99.90;;;;;;5031860;28;20041;-32
2022/11/24 04:15:42;;;;;;;13.50;4.28;;;6.90;99.90;;;;;;5038022;28;20402;-30
2022/11/24 04:18:10;;;;;;;14.07;4.25;;;6.90;99.90;;;;;;5030509;28;20196;-29
2022/11/24 04:20:36;;;;;;;15.52;4.85;;;6.90;99.90;;;;;;5038727;28;20478;-28
2022/11/24 04:23:02;;;;;;;12.82;3.72;;;6.90;99.90;;;;;;5042154;28;20546;-28
2022/11/24 04:25:29;;;;;;;12.38;4.13;;;6.90;99.90;;;;;;5039565;28;20034;-30
2022/11/24 04:27:55;;;;;;;15.13;4.07;;;6.90;99.90;;;;;;5036117;28;20073;-29
2022/11/24 04:30:22;;;;;;;17.23;4.15;;;7.00;99.90;;;;;;5032572;28;20120;-29
2022/11/24 04:32:49;;;;;;;19.45;4.30;;;7.00;99.90;;;;;;5038093;28;20344;-31
2022/11/24 04:35:14;;;;;;;12.95;4.53;;;7.00;99.90;;;;;;5033991;28;20091;-29
2022/11/24 04:37:40;;;;;;;11.60;3.70;;;7.00;99.90;;;;;;5032787;28;20037;-31
2022/11/24 04:40:08;;;;;;;11.95;3.85;;;7.00;99.90;;;;;;5036408;28;20033;-30
2022/11/24 04:42:34;;;;;;;14.30;4.20;;;7.00;99.90;;;;;;5034910;28;20095;-32
2022/11/24 04:45:00;;;;;;;17.05;3.90;;;7.10;99.90;;;;;;5035193;28;20490;-31
2022/11/24 04:47:26;;;;;;;11.40;3.95;;;7.10;99.90;;;;;;5033274;28;20545;-29
2022/11/24 04:49:53;;;;;;;15.27;3.67;;;7.10;99.90;;;;;;5033309;28;20095;-29
2022/11/24 04:52:21;;;;;;;21.48;3.90;;;7.10;99.90;;;;;;5032962;28;20508;-29
2022/11/24 04:54:48;;;;;;;12.27;4.28;;;7.10;99.90;;;;;;5026578;28;20112;-30
2022/11/24 04:57:20;;;;;;;14.63;4.20;;;7.10;99.90;;;;;;5032637;28;20042;-28
2022/11/24 04:59:45;;;;;;;15.38;3.38;;;7.10;99.90;;;;;;5038267;28;20148;-28
2022/11/24 05:02:12;;;;;;;13.32;3.92;;;7.10;99.90;;;;;;5016122;28;20129;-29
2022/11/24 05:04:38;;;;;;;13.52;3.70;;;7.10;99.90;;;;;;5032523;28;20087;-29
2022/11/24 05:07:04;;;;;;;17.65;4.78;;;7.10;99.90;;;;;;5028049;28;20049;-28
2022/11/24 05:09:29;;;;;;;13.07;4.38;;;7.10;99.90;;;;;;5041486;28;20421;-30
2022/11/24 05:11:55;;;;;;;15.65;3.80;;;7.20;99.90;;;;;;5032197;28;20116;-30
2022/11/24 05:14:21;;;;;;;16.45;4.82;;;7.10;99.90;;;;;;5039750;28;20036;-29
2022/11/24 05:16:47;;;;;;;14.68;3.97;;;7.20;99.90;;;;;;5042344;28;20032;-31
2022/11/24 05:19:13;;;;;;;16.95;4.25;;;7.10;99.90;;;;;;5035519;28;20044;-28
2022/11/24 05:21:39;;;;;;;11.48;3.38;;;7.10;99.90;;;;;;5030403;28;20392;-29
2022/11/24 05:24:05;;;;;;;12.13;3.40;;;7.10;99.90;;;;;;5025511;28;20034;-30
2022/11/24 05:26:31;;;;;;;16.77;4.10;;;7.00;99.90;;;;;;5031666;28;20040;-29
2022/11/24 05:28:57;;;;;;;14.82;4.50;;;7.00;99.90;;;;;;5036601;28;20474;-29
2022/11/24 05:31:22;;;;;;;12.27;3.83;;;6.90;99.90;;;;;;5033656;28;20048;-29
2022/11/24 05:33:48;;;;;;;14.13;3.78;;;6.90;99.90;;;;;;5038820;28;20044;-29
2022/11/24 05:38:59;;;;;;;12.77;4.35;;;6.80;99.90;;;;;;5028088;28;20171;-28
2022/11/24 05:41:24;;;;;;;15.48;4.07;;;6.70;99.90;;;;;;5036699;28;20404;-28
2022/11/24 05:43:50;;;;;;;11.02;3.55;;;6.70;99.90;;;;;;5041765;28;20037;-29
2022/11/24 05:46:16;;;;;;;13.35;3.90;;;6.70;99.90;;;;;;5030812;28;20037;-29
2022/11/24 05:48:42;;;;;;;14.20;3.92;;;6.70;99.90;;;;;;5037406;28;20168;-31
2022/11/24 05:51:07;;;;;;;17.92;4.85;;;6.60;99.90;;;;;;5038018;28;20352;-29
2022/11/24 05:53:33;;;;;;;17.45;4.22;;;6.60;99.90;;;;;;5031758;28;20041;-30
2022/11/24 05:56:05;;;;;;;13.65;3.60;;;6.60;99.90;;;;;;5032701;28;20576;-30
2022/11/24 05:58:30;;;;;;;12.85;4.20;;;6.50;99.90;;;;;;5030127;28;20038;-31
2022/11/24 06:00:56;;;;;;;14.88;4.25;;;6.50;99.90;;;;;;5038628;28;20036;-28
2022/11/24 06:03:22;;;;;;;15.75;3.92;;;6.40;99.90;;;;;;5018438;28;20580;-30
2022/11/24 06:05:48;;;;;;;16.27;3.75;;;6.40;99.90;;;;;;5030855;28;20037;-31
2022/11/24 06:08:14;;;;;;;15.43;4.30;;;6.40;99.90;;;;;;5028588;28;20494;-29
2022/11/24 06:10:40;;;;;;;13.95;4.20;;;6.30;99.90;;;;;;5031909;28;20037;-28
2022/11/24 06:13:06;;;;;;;17.90;4.28;;;6.30;99.90;;;;;;5032054;28;20067;-28
2022/11/24 06:15:33;;;;;;;17.30;4.28;;;6.30;99.90;;;;;;5029100;28;20118;-30
2022/11/24 06:17:59;;;;;;;11.63;3.95;;;6.30;99.90;;;;;;5034611;28;20493;-29
2022/11/24 06:20:25;;;;;;;13.30;4.20;;;6.30;99.90;;;;;;5029931;28;20107;-28
2022/11/24 06:22:51;;;;;;;13.98;4.00;;;6.20;99.90;;;;;;5031694;28;20459;-28
2022/11/24 06:25:17;;;;;;;16.70;5.28;;;6.20;99.90;;;;;;5014790;28;20033;-28
2022/11/24 06:27:44;;;;;;;17.65;4.55;;;6.20;99.90;;;;;;5030319;28;20080;-29
2022/11/24 06:30:10;;;;;;;14.20;4.07;;;6.20;99.90;;;;;;5029117;28;20034;-29
2022/11/24 06:32:37;;;;;;;17.10;5.03;;;6.30;99.90;;;;;;5032470;28;20437;-30
2022/11/24 06:35:03;;;;;;;17.23;5.05;;;6.30;99.90;;;;;;5033312;28;20037;-30
2022/11/24 06:37:29;;;;;;;19.48;5.22;;;6.30;99.90;;;;;;5031600;28;20108;-30
2022/11/24 06:39:56;;;;;;;19.80;5.22;;;6.30;99.90;;;;;;5032954;28;20099;-29
2022/11/24 06:42:22;;;;;;;16.92;4.15;;;6.40;99.90;;;;;;5032565;28;20049;-29
2022/11/24 06:44:47;;;;;;;19.73;5.93;;;6.40;99.90;;;;;;5031729;28;20029;-29
2022/11/24 06:47:13;;;;;;;12.18;4.15;;;6.40;99.90;;;;;;5030962;28;20033;-30
2022/11/24 06:49:39;;;;;;;17.60;4.95;;;6.40;99.90;;;;;;5030156;28;20041;-31
2022/11/24 06:52:05;;;;;;;18.30;4.47;;;6.40;99.90;;;;;;5030991;28;20052;-29
2022/11/24 06:54:31;;;;;;;13.07;4.45;;;6.40;99.90;;;;;;5030003;28;20041;-28
2022/11/24 06:56:57;;;;;;;16.23;4.45;;;6.50;99.90;;;;;;5030730;28;20069;-29
2022/11/24 06:59:23;;;;;;;13.07;4.82;;;6.50;99.90;;;;;;5037200;28;20037;-28
2022/11/24 07:01:49;;;;;;;14.32;4.97;;;6.60;99.90;;;;;;5029947;28;20063;-30
2022/11/24 07:04:15;;;;;;;14.98;4.82;;;6.60;99.90;;;;;;5037751;28;20045;-29
2022/11/24 07:06:42;;;;;;;17.77;5.07;;;6.70;99.90;;;;;;5036891;28;20029;-29
2022/11/24 07:09:09;;;;;;;20.73;5.90;;;6.70;99.90;;;;;;5040987;28;20040;-30
2022/11/24 07:11:35;;;;;;;19.98;6.20;;;6.70;99.90;;;;;;5036373;28;20536;-28
2022/11/24 07:14:01;;;;;;;22.50;6.45;;;6.70;99.90;;;;;;5039490;28;20115;-29
2022/11/24 07:16:27;;;;;;;17.98;5.50;;;6.80;99.90;;;;;;5037409;28;20083;-30
2022/11/24 07:18:53;;;;;;;19.10;5.60;;;6.80;99.90;;;;;;5033924;28;20544;-29
2022/11/24 07:21:21;;;;;;;13.70;5.82;;;6.80;99.90;;;;;;5033820;28;20033;-29
2022/11/24 07:24:03;;;;;;;22.95;7.63;;;6.80;99.90;;;;;;5024137;28;20048;-28
2022/11/24 07:26:28;;;;;;;34.88;10.68;;;6.90;99.90;;;;;;5030357;28;20459;-29
2022/11/24 07:28:54;;;;;;;56.33;19.08;;;6.90;99.90;;;;;;5028606;28;20045;-30
2022/11/24 07:31:23;;;;;;;32.53;11.73;;;6.90;99.90;;;;;;5032387;28;20045;-29
2022/11/24 07:33:53;;;;;;;29.77;8.52;;;6.90;99.90;;;;;;5031480;28;20566;-29
2022/11/24 07:36:20;;;;;;;22.58;6.65;;;6.90;99.90;;;;;;5031283;28;20065;-29
2022/11/24 07:38:46;;;;;;;19.65;6.75;;;7.00;99.90;;;;;;5038949;28;20053;-30
2022/11/24 07:41:14;;;;;;;21.77;6.78;;;7.00;99.90;;;;;;5036548;28;20124;-29
2022/11/24 07:43:40;;;;;;;21.13;7.05;;;7.10;99.90;;;;;;5031994;28;20037;-29
2022/11/24 07:46:09;;;;;;;24.77;7.28;;;7.10;99.90;;;;;;5038354;28;20037;-28
2022/11/24 07:48:35;;;;;;;23.30;6.95;;;7.20;99.90;;;;;;5030261;28;20038;-28
2022/11/24 07:51:03;;;;;;;18.67;6.15;;;7.20;99.90;;;;;;5029007;28;20049;-29
2022/11/24 07:53:30;;;;;;;19.27;6.47;;;7.20;99.90;;;;;;5033168;28;20166;-29
2022/11/24 07:55:59;;;;;;;16.65;5.95;;;7.30;99.90;;;;;;5031474;28;20044;-29
2022/11/24 07:58:29;;;;;;;19.42;5.93;;;7.30;99.90;;;;;;5036710;28;20650;-30
2022/11/24 08:00:56;;;;;;;18.25;5.88;;;7.30;99.90;;;;;;5034599;28;20037;-29
2022/11/24 08:03:23;;;;;;;20.95;6.43;;;7.30;99.90;;;;;;5033780;28;20043;-29
2022/11/24 08:05:57;;;;;;;15.07;5.20;;;7.30;99.90;;;;;;5034300;28;20033;-27
2022/11/24 08:08:23;;;;;;;18.02;5.03;;;7.40;99.90;;;;;;5033277;28;20033;-29
2022/11/24 08:10:49;;;;;;;16.00;5.38;;;7.40;99.90;;;;;;5037427;28;20041;-29
2022/11/24 08:13:15;;;;;;;19.30;5.60;;;7.40;99.90;;;;;;5027979;28;20088;-30
2022/11/24 08:15:41;;;;;;;17.23;5.88;;;7.40;99.90;;;;;;5015200;28;20052;-29
2022/11/24 08:18:07;;;;;;;12.85;4.90;;;7.40;99.90;;;;;;5029631;28;20053;-28
2022/11/24 08:20:32;;;;;;;17.70;5.03;;;7.40;99.90;;;;;;5028971;28;20064;-29
2022/11/24 08:22:59;;;;;;;11.75;4.72;;;7.50;99.90;;;;;;5033118;28;20049;-29
2022/11/24 08:25:31;;;;;;;18.30;5.20;;;7.50;99.90;;;;;;5031223;28;20041;-31
2022/11/24 08:28:02;;;;;;;13.40;4.65;;;7.40;99.90;;;;;;5024882;28;20041;-28
2022/11/24 08:30:28;;;;;;;14.80;4.88;;;7.50;99.90;;;;;;5024562;28;20034;-28
2022/11/24 08:32:54;;;;;;;15.30;5.10;;;7.60;99.90;;;;;;5018281;28;20034;-31
2022/11/24 08:35:20;;;;;;;9.65;4.90;;;7.70;99.90;;;;;;5032043;28;20106;-30
2022/11/24 08:37:46;;;;;;;12.93;4.55;;;7.70;99.90;;;;;;5028462;28;20034;-29
2022/11/24 08:40:12;;;;;;;11.27;4.50;;;7.80;99.90;;;;;;5038112;28;20037;-30
2022/11/24 08:42:38;;;;;;;11.88;4.57;;;7.80;99.90;;;;;;5034773;28;20037;-29
2022/11/24 08:45:05;;;;;;;12.30;4.53;;;7.90;99.90;;;;;;5033674;28;20490;-29
2022/11/24 08:47:31;;;;;;;10.25;4.20;;;7.90;99.90;;;;;;5035287;28;20041;-29
2022/11/24 08:49:59;;;;;;;10.77;3.90;;;7.90;99.90;;;;;;5030473;28;20092;-30
2022/11/24 08:52:25;;;;;;;11.63;4.55;;;7.90;99.90;;;;;;5034092;28;20095;-29
2022/11/24 08:54:51;;;;;;;6.65;3.58;;;7.90;99.90;;;;;;5031527;28;20033;-30
2022/11/24 08:57:16;;;;;;;9.45;3.67;;;7.90;99.90;;;;;;5029389;28;20048;-29
2022/11/24 08:59:42;;;;;;;10.35;3.78;;;8.00;99.90;;;;;;5033291;28;20039;-30
2022/11/24 09:02:12;;;;;;;7.72;4.35;;;8.00;99.90;;;;;;5032714;28;20036;-30
2022/11/24 09:04:38;;;;;;;8.80;4.15;;;8.10;99.90;;;;;;5032020;28;20064;-30
2022/11/24 09:07:04;;;;;;;9.55;4.15;;;8.20;99.90;;;;;;5035523;28;20138;-30
2022/11/24 09:09:30;;;;;;;10.18;4.13;;;8.50;99.90;;;;;;5032565;28;20041;-29
2022/11/24 09:11:56;;;;;;;11.90;4.32;;;9.10;99.90;;;;;;5033966;28;20037;-29
2022/11/24 09:14:22;;;;;;;8.82;4.28;;;9.70;99.90;;;;;;5031321;28;20048;-29
2022/11/24 09:16:48;;;;;;;7.55;3.45;;;10.50;99.90;;;;;;5031921;28;20037;-29
2022/11/24 09:19:13;;;;;;;8.88;3.90;;;11.10;99.90;;;;;;5033435;28;20091;-30
2022/11/24 09:21:39;;;;;;;10.40;3.08;;;11.70;99.90;;;;;;5030111;28;20094;-31
2022/11/24 09:24:06;;;;;;;10.82;3.72;;;12.20;99.90;;;;;;5038700;28;20505;-29
2022/11/24 09:26:34;;;;;;;11.07;3.58;;;12.60;99.90;;;;;;5032350;28;20107;-29
2022/11/24 09:29:02;;;;;;;9.00;3.72;;;12.80;99.90;;;;;;5031276;28;20099;-30
2022/11/24 09:31:32;;;;;;;12.05;4.68;;;13.10;99.90;;;;;;5036159;28;20055;-30
2022/11/24 09:33:59;;;;;;;6.30;3.00;;;13.40;99.90;;;;;;5032107;28;20096;-30
2022/11/24 09:36:26;;;;;;;8.60;2.97;;;13.40;99.90;;;;;;5030836;28;20517;-30
2022/11/24 09:38:52;;;;;;;6.82;2.85;;;13.70;99.90;;;;;;5028728;28;20121;-30
2022/11/24 09:41:34;;;;;;;5.57;2.92;;;13.80;99.90;;;;;;5026333;28;20112;-29
2022/11/24 09:44:09;;;;;;;6.65;2.50;;;14.20;99.90;;;;;;5021280;28;20034;-30
2022/11/24 09:46:34;;;;;;;5.45;2.72;;;14.40;99.90;;;;;;5029723;28;20048;-30
2022/11/24 09:49:03;;;;;;;8.15;4.78;;;14.80;99.90;;;;;;5043465;28;20403;-30
2022/11/24 09:51:31;;;;;;;4.82;3.42;;;15.10;99.90;;;;;;5028120;28;20395;-30
2022/11/24 09:54:05;;;;;;;5.63;3.00;;;15.10;99.90;;;;;;5026389;28;20045;-30
2022/11/24 09:56:34;;;;;;;5.05;2.80;;;15.30;99.90;;;;;;5030103;28;20058;-30
2022/11/24 09:59:27;;;;;;;5.60;2.60;;;15.30;99.90;;;;;;5028247;28;20073;-31
2022/11/24 10:01:54;;;;;;;8.48;3.10;;;15.50;99.90;;;;;;5023708;28;20084;-30
2022/11/24 10:04:33;;;;;;;5.20;2.72;;;15.70;99.90;;;;;;5028248;28;20037;-30
2022/11/24 10:07:05;;;;;;;3.28;2.70;;;15.80;99.90;;;;;;5019487;28;20518;-32
2022/11/24 10:09:39;;;;;;;5.32;2.50;;;15.70;99.90;;;;;;5046890;28;20073;-31
2022/11/24 10:12:20;;;;;;;5.05;2.85;;;15.50;99.90;;;;;;5036212;28;20037;-30
2022/11/24 10:15:13;;;;;;;4.85;3.00;;;15.20;99.90;;;;;;5026228;28;20040;-29
2022/11/24 10:17:49;;;;;;;3.47;2.78;;;14.60;99.90;;;;;;5040372;28;20037;-30
2022/11/24 10:20:26;;;;;;;5.03;3.15;;;13.80;99.90;;;;;;5033803;28;20037;-30
2022/11/24 10:23:10;;;;;;;5.00;3.40;;;13.30;99.90;;;;;;5027717;28;20502;-30
2022/11/24 10:26:00;;;;;;;5.70;3.50;;;13.10;99.90;;;;;;5038901;28;20391;-30
2022/11/24 10:28:55;;;;;;;6.72;4.00;;;13.10;99.90;;;;;;5017242;28;20553;-29
2022/11/24 10:31:35;;;;;;;7.85;4.68;;;13.30;99.90;;;;;;5025880;28;20038;-29
2022/11/24 10:34:09;;;;;;;7.10;4.07;;;13.80;99.90;;;;;;5035019;28;20046;-29
2022/11/24 10:36:38;;;;;;;5.35;3.90;;;14.80;99.90;;;;;;5030989;28;20045;-30
2022/11/24 10:39:22;;;;;;;6.38;3.72;;;14.90;99.90;;;;;;5035649;28;20489;-29
2022/11/24 10:41:48;;;;;;;6.72;4.20;;;14.50;99.90;;;;;;5035677;28;20399;-29
2022/11/24 10:44:15;;;;;;;5.25;4.13;;;14.00;99.90;;;;;;5027392;28;20034;-30
2022/11/24 10:46:41;;;;;;;7.68;4.50;;;13.50;99.90;;;;;;5031953;28;20511;-30
2022/11/24 10:49:17;;;;;;;7.13;4.43;;;13.00;99.90;;;;;;5029056;28;20080;-29
2022/11/24 10:51:52;;;;;;;8.73;4.82;;;12.80;99.90;;;;;;5026479;28;20523;-30
2022/11/24 10:54:20;;;;;;;5.93;4.97;;;12.70;99.90;;;;;;5035436;28;20122;-29
2022/11/24 10:56:49;;;;;;;7.07;5.18;;;12.80;99.90;;;;;;5028647;28;20095;-31
2022/11/24 10:59:28;;;;;;;6.93;5.07;;;12.60;99.90;;;;;;5033387;28;20090;-29
2022/11/24 11:01:54;;;;;;;6.13;4.88;;;12.40;99.90;;;;;;5030756;28;20041;-30
2022/11/24 11:04:26;;;;;;;6.07;4.65;;;12.50;99.90;;;;;;5032505;28;20041;-29
2022/11/24 11:07:05;;;;;;;6.68;4.72;;;12.70;99.90;;;;;;5027425;28;20037;-29
2022/11/24 11:09:31;;;;;;;7.88;6.07;;;12.80;99.90;;;;;;5038495;28;20194;-29
2022/11/24 11:12:09;;;;;;;6.53;5.05;;;13.30;99.90;;;;;;5032466;28;20116;-30
2022/11/24 11:14:35;;;;;;;7.07;5.18;;;13.90;99.90;;;;;;5029828;28;20049;-29
2022/11/24 11:17:01;;;;;;;5.68;4.72;;;14.40;99.90;;;;;;5036175;28;20045;-29
2022/11/24 11:19:31;;;;;;;6.97;5.07;;;15.10;99.90;;;;;;5031559;28;20137;-29
2022/11/24 11:22:01;;;;;;;7.28;4.80;;;15.80;99.90;;;;;;5044598;28;20091;-30
2022/11/24 11:24:27;;;;;;;5.82;4.82;;;16.00;99.90;;;;;;5031281;28;20041;-29
2022/11/24 11:27:22;;;;;;;8.13;4.93;;;16.40;99.90;;;;;;5031904;28;20034;-30
2022/11/24 11:29:48;;;;;;;8.60;5.38;;;17.00;99.90;;;;;;5030266;28;20402;-29
2022/11/24 11:32:26;;;;;;;7.90;5.15;;;17.40;99.90;;;;;;5028169;28;20051;-30
2022/11/24 11:34:54;;;;;;;6.50;5.07;;;17.60;99.90;;;;;;5029409;28;20104;-31
2022/11/24 11:37:28;;;;;;;8.80;5.15;;;18.00;99.90;;;;;;5028422;28;20148;-30
2022/11/24 11:39:55;;;;;;;6.38;4.70;;;18.30;99.90;;;;;;5026049;28;20037;-30
2022/11/24 11:42:31;;;;;;;9.98;4.43;;;18.80;99.90;;;;;;5029297;28;20533;-29
2022/11/24 11:45:19;;;;;;;8.90;4.95;;;18.80;99.90;;;;;;5030151;28;20095;-30
2022/11/24 11:47:48;;;;;;;11.95;5.68;;;18.70;99.90;;;;;;5032321;28;20414;-31
2022/11/24 11:50:16;;;;;;;8.52;4.80;;;18.60;99.90;;;;;;5029470;28;20033;-30
2022/11/24 11:53:03;;;;;;;6.43;5.45;;;18.70;99.90;;;;;;5023761;28;20371;-30
2022/11/24 11:56:11;;;;;;;9.38;5.30;;;18.50;99.10;;;;;;5031532;28;20044;-30
2022/11/24 11:58:55;;;;;;;7.00;4.70;;;18.60;99.90;;;;;;5052636;28;20029;-30
2022/11/24 12:01:43;;;;;;;6.65;4.47;;;18.60;99.90;;;;;;5046699;28;20442;-32
2022/11/24 12:04:53;;;;;;;9.18;5.40;;;18.90;97.90;;;;;;5053300;28;20542;-32
2022/11/24 12:07:45;;;;;;;7.18;4.88;;;18.60;94.00;;;;;;5053507;28;20069;-30
2022/11/24 12:10:29;;;;;;;7.60;5.18;;;17.80;99.90;;;;;;5029729;28;20033;-30
2022/11/24 12:13:12;;;;;;;8.43;5.00;;;16.90;99.90;;;;;;5032347;28;20029;-30
2022/11/24 12:15:48;;;;;;;9.07;5.95;;;16.20;99.90;;;;;;5046127;28;20402;-30
2022/11/24 12:18:23;;;;;;;8.40;5.57;;;15.90;99.90;;;;;;5033586;28;20459;-30
2022/11/24 12:21:07;;;;;;;9.00;4.95;;;16.20;99.90;;;;;;5048763;28;20044;-31
2022/11/24 12:23:50;;;;;;;9.52;5.28;;;17.10;99.90;;;;;;5046726;28;20071;-30
2022/11/24 12:26:44;;;;;;;11.38;5.57;;;17.70;99.90;;;;;;5031571;28;20414;-31
2022/11/24 12:29:28;;;;;;;;;;;18.40;99.90;;;;;;5033798;28;20041;-31
2022/11/24 12:31:54;;;;;;;;;;;18.70;99.30;;;;;;5030684;28;19927;-30
2022/11/24 12:34:28;;;;;;;6.53;4.68;;;18.80;99.90;;;;;;5034484;28;20007;-32
2022/11/24 12:37:29;;;;;;;8.32;5.28;;;19.30;99.90;;;;;;5040109;28;20395;-31
2022/11/24 12:40:04;;;;;;;7.35;4.60;;;19.70;90.10;;;;;;5025954;28;20072;-31
2022/11/24 12:42:48;;;;;;;9.00;5.10;;;20.00;97.20;;;;;;5032833;28;20041;-31
2022/11/24 12:45:21;;;;;;;8.60;5.47;;;20.10;88.40;;;;;;5035148;28;20037;-31
2022/11/24 12:47:56;;;;;;;7.57;6.10;;;19.80;98.40;;;;;;5033095;28;20029;-31
2022/11/24 12:50:26;;;;;;;9.25;5.13;;;19.40;95.10;;;;;;5038243;28;20042;-29
2022/11/24 12:53:01;;;;;;;6.47;4.78;;;19.30;99.30;;;;;;5029114;28;20040;-31
2022/11/24 12:55:30;;;;;;;8.80;5.15;;;19.40;87.50;;;;;;5032454;28;20118;-29
2022/11/24 12:58:21;;;;;;;11.00;4.65;;;19.20;95.40;;;;;;5038465;28;20029;-30
2022/11/24 13:00:49;;;;;;;8.45;4.03;;;18.90;98.30;;;;;;5029769;28;20414;-31
2022/11/24 13:03:47;;;;;;;9.73;4.22;;;18.60;99.90;;;;;;5038897;28;20068;-30